Data for 04/04/2018

Time Sea-Level Adjusted Pressure Absolute Pressure Temperature Relative Humidity Dew Point   
(mb) (inHg) (mb) (inHg) (C) (F) (%) (C) (F)
00:05 1015 29.97 844 24.92 3.2 37.7 34 -11.3 11.7
00:10 1015 29.97 844 24.92 3.2 37.7 36 -10.4 13.2
00:15 1015 29.97 844 24.92 3 37.3 36 -10.5 13
00:20 1015 29.97 844 24.92 2.9 37.3 36 -10.8 12.6
00:25 1015 29.97 844 24.92 3 37.5 35 -10.9 12.3
00:30 1015 29.97 844 24.92 3.1 37.5 37 -10.3 13.4
00:35 1015 29.97 844 24.92 2.9 37.3 38 -10 14
00:40 1015 29.97 844 24.92 2.9 37.2 39 -9.9 14.3
00:45 1015 29.97 844 24.92 2.8 37 41 -9.3 15.3
00:50 1015 29.97 844 24.92 2.8 37 39 -9.8 14.3
00:55 1015 29.97 844 24.92 2.9 37.1 41 -9.1 15.7
01:00 1015 29.97 844 24.92 2.8 37 41 -9.3 15.2
01:05 1015 29.97 844 24.92 2.8 37.1 42 -9 15.8
01:10 1015 29.97 844 24.92 2.8 37 43 -8.6 16.4
01:15 1015 29.97 844 24.92 2.7 36.9 42 -9 15.8
01:20 1015 29.97 844 24.92 2.7 36.8 40 -9.6 14.7
01:25 1015 29.97 844 24.92 2.9 37.3 38 -10.1 13.8
01:30 1014 29.94 844 24.92 3.2 37.8 37 -10.1 13.8
01:35 1014 29.94 844 24.92 3.6 38.4 37 -9.7 14.6
01:40 1014 29.94 844 24.92 3.8 38.8 39 -9 15.7
01:45 1014 29.94 844 24.92 3.8 38.8 40 -8.6 16.6
01:50 1014 29.94 844 24.92 3.6 38.6 42 -8.1 17.5
01:55 1014 29.94 843 24.89 3.5 38.3 41 -8.4 16.9
02:00 1014 29.94 843 24.89 3.5 38.3 40 -8.9 16
02:05 1014 29.94 843 24.89 3.5 38.3 40 -9 15.8
02:10 1014 29.94 843 24.89 3.4 38.1 41 -8.7 16.4
02:15 1014 29.94 843 24.89 3.2 37.7 43 -8.3 17.1
02:20 1014 29.94 843 24.89 3 37.4 43 -8.3 17
02:25 1014 29.94 843 24.89 3 37.5 42 -8.6 16.5
02:30 1014 29.94 843 24.89 3.1 37.6 42 -8.5 16.7
02:35 1014 29.94 843 24.89 3.1 37.6 42 -8.4 16.8
02:40 1014 29.94 843 24.89 3.1 37.7 42 -8.5 16.6
02:45 1014 29.94 843 24.89 3.2 37.7 42 -8.5 16.6
02:50 1014 29.94 843 24.89 3.3 37.9 40 -9.1 15.7
02:55 1014 29.94 843 24.89 3.3 38 40 -8.9 16
03:00 1014 29.94 843 24.89 3.3 37.9 43 -8.3 17.1
03:05 1014 29.94 843 24.89 3.1 37.6 43 -8.4 16.8
03:10 1014 29.94 843 24.89 3.1 37.6 42 -8.7 16.4
03:15 1014 29.94 843 24.89 3.4 38.2 38 -9.4 15
03:20 1014 29.94 843 24.89 3.8 38.9 38 -9.3 15.2
03:25 1014 29.94 843 24.89 3.8 38.9 38 -9.3 15.3
03:30 1014 29.94 843 24.89 3.8 38.8 39 -9 15.9
03:35 1014 29.94 843 24.89 3.6 38.4 40 -8.9 16
03:40 1014 29.94 843 24.89 3.5 38.2 40 -8.7 16.3
03:45 1014 29.94 843 24.89 3.3 38 39 -9.2 15.4
03:50 1014 29.94 843 24.89 3.3 37.9 42 -8.5 16.7
03:55 1014 29.94 843 24.89 3.2 37.7 41 -8.7 16.3
04:00 1014 29.94 843 24.89 3.2 37.8 40 -9.3 15.3
04:05 1014 29.94 843 24.89 3.3 38 40 -9.1 15.6
04:10 1014 29.94 843 24.89 3.3 38 41 -8.8 16.1
04:15 1014 29.94 843 24.89 3.3 37.9 41 -8.9 16
04:20 1014 29.94 843 24.89 3.2 37.7 42 -8.6 16.5
04:25 1014 29.94 843 24.89 3.1 37.6 42 -8.6 16.6
04:30 1014 29.94 843 24.89 3.2 37.7 41 -8.9 15.9
04:35 1014 29.94 843 24.89 3.3 37.9 40 -8.9 16
04:40 1014 29.94 843 24.89 3.5 38.4 36 -10 13.9
04:45 1014 29.94 843 24.89 3.8 38.9 37 -9.5 14.9
04:50 1014 29.94 843 24.89 3.8 38.8 39 -9 15.8
04:55 1014 29.94 843 24.89 3.5 38.3 40 -8.7 16.3
05:00 1014 29.94 843 24.89 3.3 37.9 41 -8.7 16.4
05:05 1014 29.94 843 24.89 3.3 37.9 41 -8.7 16.3
05:10 1014 29.94 843 24.89 3.3 37.9 41 -8.8 16.1
05:15 1014 29.94 843 24.89 3.2 37.8 43 -8.3 17
05:20 1014 29.94 843 24.89 3.3 37.9 39 -9.3 15.2
05:25 1014 29.94 843 24.89 3.8 38.9 41 -8.3 17
05:30 1014 29.94 843 24.89 3.8 38.8 41 -8.4 16.9
05:35 1014 29.94 843 24.89 3.8 38.8 41 -8.2 17.3
05:40 1014 29.94 843 24.89 3.7 38.6 43 -7.8 18
05:45 1014 29.94 843 24.89 3.5 38.4 42 -8.1 17.5
05:50 1014 29.94 843 24.89 3.6 38.5 42 -8.2 17.2
05:55 1014 29.94 843 24.89 3.7 38.7 42 -8 17.7
06:00 1014 29.94 843 24.89 3.8 38.8 41 -8.4 16.9
06:05 1014 29.94 843 24.89 3.9 39.1 40 -8.3 17
06:10 1014 29.94 843 24.89 4 39.2 42 -7.7 18.1
06:15 1014 29.94 843 24.89 4 39.2 43 -7.4 18.7
06:20 1014 29.94 843 24.89 3.8 38.8 42 -7.9 17.8
06:25 1014 29.94 843 24.89 3.5 38.3 43 -7.9 17.8
06:30 1014 29.94 843 24.89 3.3 37.9 42 -8.5 16.7
06:35 1014 29.94 843 24.89 3.3 37.9 43 -8.2 17.2
06:40 1014 29.94 843 24.89 3.3 38 42 -8.3 17.1
06:45 1014 29.94 843 24.89 3.4 38.2 43 -8 17.7
06:50 1014 29.94 843 24.89 3.7 38.6 45 -7.1 19.2
06:55 1014 29.94 843 24.89 4 39.2 44 -7 19.4
07:00 1014 29.94 843 24.89 4 39.2 42 -7.7 18.1
07:05 1014 29.94 843 24.89 3.8 38.9 41 -8.1 17.4
07:10 1014 29.94 843 24.89 3.8 38.8 40 -8.6 16.5
07:15 1014 29.94 844 24.92 3.6 38.4 41 -8.5 16.7
07:20 1014 29.94 844 24.92 3.4 38.2 42 -8.2 17.2
07:25 1014 29.94 844 24.92 3.5 38.4 44 -7.7 18.2
07:30 1014 29.94 844 24.92 3.8 38.8 44 -7.4 18.7
07:35 1014 29.94 844 24.92 3.8 38.8 43 -7.7 18.2
07:40 1014 29.94 844 24.92 3.7 38.7 42 -7.9 17.8
07:45 1014 29.94 844 24.92 3.7 38.6 44 -7.5 18.4
07:50 1014 29.94 844 24.92 3.6 38.5 43 -7.8 18
07:55 1014 29.94 844 24.92 3.9 38.9 42 -7.9 17.9
08:00 1014 29.94 844 24.92 4 39.2 43 -7.3 18.8
08:05 1014 29.94 844 24.92 4 39.1 45 -7 19.4
08:10 1015 29.97 844 24.92 3.6 38.6 46 -7 19.4
08:15 1015 29.97 844 24.92 3.6 38.5 46 -6.8 19.7
08:20 1015 29.97 844 24.92 3.8 38.8 45 -7.2 19
08:25 1015 29.97 844 24.92 3.9 39.1 44 -7.3 18.9
08:30 1015 29.97 844 24.92 3.9 39 45 -7 19.3
08:35 1015 29.97 844 24.92 4 39.1 44 -7.2 19
08:40 1015 29.97 844 24.92 4 39.2 45 -7 19.4
08:45 1015 29.97 844 24.92 4.1 39.3 46 -6.7 20
08:50 1015 29.97 844 24.92 4.1 39.4 45 -6.8 19.7
08:55 1015 29.97 844 24.92 4.1 39.4 45 -6.8 19.8
09:00 1015 29.97 844 24.92 3.9 39 41 -8.2 17.3
09:05 1015 29.97 844 24.92 4.1 39.3 44 -7 19.3
09:10 1015 29.97 844 24.92 4.2 39.5 42 -7.7 18.2
09:15 1015 29.97 844 24.92 4.4 40 42 -7.3 18.9
09:20 1015 29.97 844 24.92 4.2 39.5 44 -7 19.4
09:25 1015 29.97 844 24.92 4.1 39.5 43 -7.2 19
09:30 1015 29.97 844 24.92 4.4 39.9 41 -7.7 18.2
09:35 1015 29.97 844 24.92 4.5 40.1 39 -8.3 17.1
09:40 1015 29.97 844 24.92 4 39.1 42 -8 17.7
09:45 1015 29.97 844 24.92 3.8 38.9 40 -8.5 16.7
09:50 1015 29.97 844 24.92 3.9 39 41 -8.2 17.3
09:55 1015 29.97 844 24.92 4.3 39.7 40 -8.1 17.4
10:00 1015 29.97 845 24.95 4.6 40.2 41 -7.7 18.1
10:05 1015 29.97 845 24.95 4.7 40.5 38 -8.3 17.1
10:10 1015 29.97 845 24.95 4.7 40.4 41 -7.6 18.3
10:15 1015 29.97 845 24.95 4.7 40.5 40 -7.7 18.2
10:20 1015 29.97 845 24.95 4.9 40.9 38 -8.2 17.2
10:25 1015 29.97 845 24.95 5.3 41.5 36 -8.5 16.7
10:30 1015 29.97 845 24.95 5.8 42.5 34 -9 15.9
10:35 1015 29.97 845 24.95 6.1 43 34 -8.7 16.3
10:40 1015 29.97 845 24.95 6 42.7 36 -8.1 17.4
10:45 1015 29.97 845 24.95 5.7 42.2 37 -7.9 17.8
10:50 1015 29.97 845 24.95 5.4 41.8 38 -7.9 17.7
10:55 1015 29.97 845 24.95 5.8 42.5 36 -8.2 17.2
11:00 1015 29.97 845 24.95 6.2 43.1 35 -8.1 17.4
11:05 1016 30 845 24.95 5.7 42.2 34 -8.9 16
11:10 1016 30 845 24.95 5.5 41.9 33 -9.5 14.9
11:15 1016 30 845 24.95 5.7 42.2 32 -9.6 14.7
11:20 1016 30 845 24.95 6.5 43.6 33 -8.7 16.3
11:25 1016 30 845 24.95 6.2 43.2 33 -9 15.8
11:30 1016 30 845 24.95 6.7 44.1 31 -9.1 15.5
11:35 1016 30 845 24.95 6.7 44.1 31 -9.3 15.3
11:40 1016 30 845 24.95 6.4 43.5 33 -8.7 16.3
11:45 1016 30 845 24.95 6.8 44.3 31 -9.2 15.5
11:50 1016 30 845 24.95 6.7 44 32 -8.9 15.9
11:55 1016 30 845 24.95 6.5 43.6 32 -9 15.9
12:00 1016 30 845 24.95 6.7 44 33 -8.6 16.5
12:05 1016 30 845 24.95 6.9 44.4 32 -8.7 16.4
12:10 1016 30 845 24.95 6.8 44.3 34 -8 17.6
12:15 1016 30 845 24.95 7 44.7 32 -8.7 16.4
12:20 1016 30 845 24.95 7.5 45.5 31 -8.6 16.6
12:25 1016 30 845 24.95 7.5 45.4 32 -8.1 17.4
12:30 1016 30 845 24.95 7.5 45.5 31 -8.4 16.8
12:35 1016 30 845 24.95 7.3 45.1 32 -8.3 17
12:40 1016 30 845 24.95 7.2 45 33 -8.2 17.3
12:45 1016 30 845 24.95 7 44.6 33 -8 17.5
12:50 1016 30 845 24.95 6.8 44.3 33 -8.2 17.3
12:55 1016 30 845 24.95 7.2 44.9 33 -8.2 17.3
13:00 1016 30 845 24.95 7.7 45.9 32 -8.1 17.3
13:05 1016 30 845 24.95 7.8 46 35 -6.9 19.6
13:10 1016 30 845 24.95 7.8 46 36 -6.5 20.2
13:15 1016 30 845 24.95 7.7 45.9 36 -6.4 20.5
13:20 1016 30 845 24.95 7.8 46 35 -6.7 19.9
13:25 1016 30 845 24.95 8 46.3 35 -6.6 20.1
13:30 1016 30 845 24.95 7.6 45.6 38 -5.8 21.5
13:35 1016 30 845 24.95 7.2 45 38 -6.1 21
13:40 1016 30 845 24.95 7.7 45.9 37 -5.9 21.4
13:45 1016 30 845 24.95 7.5 45.6 40 -5.3 22.5
13:50 1016 30 845 24.95 7 44.6 42 -5 23
13:55 1015 29.97 845 24.95 7.6 45.6 42 -4.5 23.8
14:00 1015 29.97 845 24.95 7.2 44.9 43 -4.6 23.8
14:05 1015 29.97 845 24.95 7.3 45.2 45 -3.9 24.9
14:10 1015 29.97 845 24.95 6.9 44.5 43 -4.7 23.6
14:15 1015 29.97 844 24.92 6.7 44.1 45 -4.3 24.2
14:20 1015 29.97 844 24.92 7.1 44.8 45 -4.1 24.7
14:25 1015 29.97 844 24.92 7.8 46.1 41 -4.5 24
14:30 1015 29.97 844 24.92 8.1 46.5 41 -4.3 24.3
14:35 1015 29.97 844 24.92 7.1 44.7 43 -4.5 23.9
14:40 1015 29.97 844 24.92 7.1 44.8 43 -4.5 23.9
14:45 1015 29.97 844 24.92 7.8 46 42 -4.4 24
14:50 1015 29.97 844 24.92 7.9 46.2 40 -4.9 23.1
14:55 1015 29.97 844 24.92 7.8 46.1 41 -4.6 23.6
15:00 1015 29.97 844 24.92 7.7 45.8 40 -5.2 22.6
15:05 1015 29.97 844 24.92 8 46.4 41 -4.6 23.7
15:10 1014 29.94 844 24.92 8.3 47 39 -4.9 23.2
15:15 1014 29.94 844 24.92 8.4 47 41 -4.2 24.4
15:20 1014 29.94 844 24.92 8.5 47.2 38 -5 23.1
15:25 1014 29.94 844 24.92 8.4 47.2 40 -4.3 24.2
15:30 1014 29.94 844 24.92 8.3 47 42 -3.8 25.1
15:35 1014 29.94 844 24.92 8.3 47 42 -3.9 25
15:40 1014 29.94 844 24.92 8.3 47 42 -3.9 24.9
15:45 1014 29.94 844 24.92 8.1 46.5 43 -3.7 25.4
15:50 1014 29.94 844 24.92 8.2 46.7 44 -3.4 25.9
15:55 1015 29.97 844 24.92 7.8 46 50 -2.1 28.3
16:00 1015 29.97 844 24.92 7.4 45.3 50 -2.4 27.6
16:05 1015 29.97 844 24.92 7.7 45.8 49 -2.2 28
16:10 1015 29.97 844 24.92 8 46.4 48 -2.3 27.8
16:15 1015 29.97 844 24.92 8.2 46.7 48 -2.2 28.1
16:20 1015 29.97 844 24.92 8.2 46.7 48 -2.3 27.9
16:25 1015 29.97 844 24.92 8.1 46.6 46 -2.6 27.3
16:30 1015 29.97 844 24.92 8.4 47.1 45 -2.8 27
16:35 1014 29.94 844 24.92 8.6 47.5 44 -2.8 27
16:40 1015 29.97 844 24.92 8.7 47.6 44 -2.9 26.8
16:45 1015 29.97 844 24.92 8.7 47.6 43 -3.3 26
16:50 1015 29.97 844 24.92 8.7 47.6 42 -3.3 26
16:55 1015 29.97 844 24.92 8.4 47.1 45 -2.9 26.7
17:00 1015 29.97 844 24.92 8.1 46.7 47 -2.5 27.5
17:05 1015 29.97 844 24.92 7.7 45.8 50 -2.1 28.3
17:10 1015 29.97 844 24.92 7.4 45.4 52 -1.9 28.6
17:15 1015 29.97 844 24.92 7.4 45.2 49 -2.6 27.4
17:20 1015 29.97 844 24.92 7.4 45.2 47 -3.1 26.5
17:25 1015 29.97 844 24.92 7.6 45.6 46 -3.3 26
17:30 1015 29.97 845 24.95 7.8 46 46 -3.2 26.3
17:35 1015 29.97 845 24.95 7.9 46.3 44 -3.6 25.4
17:40 1016 30 845 24.95 7.9 46.3 43 -4 24.9
17:45 1016 30 845 24.95 7.9 46.3 43 -4 24.8
17:50 1016 30 845 24.95 8 46.4 44 -3.5 25.6
17:55 1016 30 845 24.95 7.8 46.1 44 -3.6 25.5
18:00 1016 30 845 24.95 7.8 46 44 -3.6 25.5
18:05 1016 30 845 24.95 7.7 45.8 46 -3.4 25.9
18:10 1016 30 845 24.95 7.7 45.9 46 -3.1 26.5
18:15 1016 30 845 24.95 7.6 45.7 47 -2.9 26.7
18:20 1016 30 845 24.95 7.6 45.6 48 -2.8 27
18:25 1016 30 845 24.95 7.5 45.5 45 -3.7 25.3
18:30 1016 30 845 24.95 7.5 45.5 46 -3.4 25.9
18:35 1016 30 845 24.95 7.3 45.2 47 -3.3 26.1
18:40 1016 30 845 24.95 7.3 45.1 47 -3.2 26.2
18:45 1016 30 845 24.95 7.3 45.1 46 -3.5 25.7
18:50 1016 30 845 24.95 7.4 45.3 47 -3.2 26.3
18:55 1016 30 845 24.95 7.4 45.3 46 -3.5 25.7
19:00 1016 30 845 24.95 7.4 45.4 46 -3.4 25.9
19:05 1016 30 845 24.95 7.4 45.3 46 -3.4 26
19:10 1016 30 845 24.95 7.3 45.2 46 -3.5 25.8
19:15 1016 30 845 24.95 7.4 45.4 45 -3.6 25.4
19:20 1016 30 845 24.95 7.5 45.5 47 -3 26.6
19:25 1016 30 845 24.95 7.2 44.9 49 -2.7 27.1
19:30 1016 30 845 24.95 6.8 44.2 51 -2.6 27.3
19:35 1016 30 845 24.95 6.4 43.6 52 -2.6 27.3
19:40 1016 30 845 24.95 6.3 43.3 53 -2.7 27.2
19:45 1016 30 845 24.95 6.3 43.3 53 -2.6 27.2
19:50 1016 30 845 24.95 6.2 43.1 53 -2.7 27.1
19:55 1016 30 845 24.95 6.1 43.1 54 -2.5 27.6
20:00 1016 30 845 24.95 5.9 42.6 55 -2.5 27.5
20:05 1016 30 845 24.95 5.8 42.4 55 -2.5 27.5
20:10 1016 30 845 24.95 5.6 42.1 56 -2.5 27.5
20:15 1016 30 845 24.95 5.6 42.1 57 -2.3 27.8
20:20 1016 30 845 24.95 5.7 42.2 56 -2.4 27.6
20:25 1016 30 845 24.95 5.8 42.4 56 -2.4 27.8
20:30 1016 30 845 24.95 5.8 42.4 56 -2.2 28
20:35 1016 30 845 24.95 5.7 42.2 57 -2.2 28
20:40 1016 30 845 24.95 5.5 41.9 58 -2.2 28.1
20:45 1016 30 845 24.95 5.5 41.9 57 -2.3 27.8
20:50 1016 30 845 24.95 5.5 41.9 58 -2.2 28.1
20:55 1016 30 845 24.95 5.4 41.7 57 -2.4 27.6
21:00 1016 30 846 24.98 5.5 42 57 -2.2 28.1
21:05 1016 30 846 24.98 5.4 41.8 59 -2 28.4
21:10 1016 30 846 24.98 5.2 41.4 61 -1.7 28.9
21:15 1016 30 846 24.98 5.3 41.5 63 -1.3 29.7
21:20 1016 30 846 24.98 5.2 41.4 64 -1.1 30
21:25 1016 30 846 24.98 5 41.1 66 -0.8 30.5
21:30 1017 30.03 846 24.98 4.8 40.7 67 -0.7 30.8
21:35 1017 30.03 846 24.98 4.7 40.5 67 -0.8 30.6
21:40 1017 30.03 846 24.98 4.8 40.6 67 -0.9 30.4
21:45 1017 30.03 846 24.98 5 40.9 64 -1.2 29.9
21:50 1017 30.03 846 24.98 5.1 41.3 64 -1.2 29.9
21:55 1017 30.03 846 24.98 5.2 41.3 64 -1.1 30.1
22:00 1017 30.03 846 24.98 5.1 41.2 64 -1.1 30.1
22:05 1017 30.03 846 24.98 5 41.1 64 -1.2 29.9
22:10 1017 30.03 846 24.98 5.1 41.3 63 -1.3 29.7
22:15 1017 30.03 846 24.98 5.3 41.6 62 -1.4 29.6
22:20 1017 30.03 846 24.98 5.4 41.6 62 -1.2 29.8
22:25 1017 30.03 846 24.98 5.2 41.4 64 -1.1 30.1
22:30 1017 30.03 846 24.98 5.1 41.2 65 -1 30.2
22:35 1017 30.03 846 24.98 5.1 41.2 64 -1.1 30.1
22:40 1017 30.03 846 24.98 5.1 41.1 65 -0.9 30.4
22:45 1017 30.03 846 24.98 5.1 41.1 65 -0.9 30.5
22:50 1017 30.03 846 24.98 5.2 41.3 65 -0.8 30.6
22:55 1017 30.03 846 24.98 5.1 41.2 66 -0.7 30.7
23:00 1017 30.03 846 24.98 5 41 66 -0.8 30.6
23:05 1017 30.03 846 24.98 5.1 41.1 65 -0.9 30.4
23:10 1017 30.03 846 24.98 5.1 41.2 65 -0.8 30.5
23:15 1017 30.03 846 24.98 5.1 41.2 66 -0.7 30.8
23:20 1017 30.03 846 24.98 5 41 66 -0.7 30.7
23:25 1017 30.03 846 24.98 4.8 40.7 67 -0.9 30.4
23:30 1017 30.03 846 24.98 4.8 40.6 68 -0.6 30.9
23:35 1017 30.03 846 24.98 4.8 40.6 66 -1 30.2
23:40 1017 30.03 846 24.98 5 40.9 65 -1.1 30
23:45 1017 30.03 846 24.98 5 41.1 67 -0.7 30.8
23:50 1017 30.03 846 24.98 4.8 40.6 67 -0.7 30.7
23:55 1017 30.03 846 24.98 4.6 40.3 68 -0.7 30.7
24:00 1017 30.03 846 24.98 4.6 40.2 68 -0.9 30.5